sensor_id;sensor_type;location;lat;lon;timestamp;pressure;altitude;pressure_sealevel;temperature;humidity
10093;BME280;5085;48.092;11.484;2022-10-15T00:02:17;94747.06;;;12.52;100.00
10093;BME280;5085;48.092;11.484;2022-10-15T00:04:43;94738.16;;;12.51;100.00
10093;BME280;5085;48.092;11.484;2022-10-15T00:07:09;94744.66;;;12.50;100.00
10093;BME280;5085;48.092;11.484;2022-10-15T00:09:35;94743.06;;;12.49;100.00
10093;BME280;5085;48.092;11.484;2022-10-15T00:12:01;94739.56;;;12.49;100.00
10093;BME280;5085;48.092;11.484;2022-10-15T00:14:28;94738.75;;;12.48;100.00
10093;BME280;5085;48.092;11.484;2022-10-15T00:16:54;94737.69;;;12.49;100.00
10093;BME280;5085;48.092;11.484;2022-10-15T00:19:20;94741.44;;;12.48;100.00
10093;BME280;5085;48.092;11.484;2022-10-15T00:21:46;94742.28;;;12.49;100.00
10093;BME280;5085;48.092;11.484;2022-10-15T00:24:12;94727.94;;;12.48;100.00
10093;BME280;5085;48.092;11.484;2022-10-15T00:26:38;94729.84;;;12.48;100.00
10093;BME280;5085;48.092;11.484;2022-10-15T00:29:04;94730.66;;;12.48;100.00
10093;BME280;5085;48.092;11.484;2022-10-15T00:31:31;94724.44;;;12.48;100.00
10093;BME280;5085;48.092;11.484;2022-10-15T00:33:58;94722.53;;;12.48;100.00
10093;BME280;5085;48.092;11.484;2022-10-15T00:36:27;94719.84;;;12.48;100.00
10093;BME280;5085;48.092;11.484;2022-10-15T00:38:54;94718.25;;;12.47;100.00
10093;BME280;5085;48.092;11.484;2022-10-15T00:41:25;94718.25;;;12.47;100.00
10093;BME280;5085;48.092;11.484;2022-10-15T00:43:58;94695.06;;;12.46;100.00
10093;BME280;5085;48.092;11.484;2022-10-15T00:46:31;94693.44;;;12.45;100.00
10093;BME280;5085;48.092;11.484;2022-10-15T00:49:16;94698.06;;;12.45;100.00
10093;BME280;5085;48.092;11.484;2022-10-15T00:51:47;94698.06;;;12.45;100.00
10093;BME280;5085;48.092;11.484;2022-10-15T00:54:14;94690.22;;;12.43;100.00
10093;BME280;5085;48.092;11.484;2022-10-15T00:56:42;94688.63;;;12.42;100.00
10093;BME280;5085;48.092;11.484;2022-10-15T00:59:10;94680.53;;;12.42;100.00
10093;BME280;5085;48.092;11.484;2022-10-15T01:01:38;94688.63;;;12.42;100.00
10093;BME280;5085;48.092;11.484;2022-10-15T01:04:05;94681.63;;;12.41;100.00
10093;BME280;5085;48.092;11.484;2022-10-15T01:06:31;94684.03;;;12.43;100.00
10093;BME280;5085;48.092;11.484;2022-10-15T01:08:58;94677.84;;;12.42;100.00
10093;BME280;5085;48.092;11.484;2022-10-15T01:11:45;94670.84;;;12.41;100.00
10093;BME280;5085;48.092;11.484;2022-10-15T01:14:38;94666.25;;;12.42;100.00
10093;BME280;5085;48.092;11.484;2022-10-15T01:17:15;94669.72;;;12.42;100.00
10093;BME280;5085;48.092;11.484;2022-10-15T01:22:59;94661.63;;;12.42;100.00
10093;BME280;5085;48.092;11.484;2022-10-15T01:25:50;94660.03;;;12.41;100.00
10093;BME280;5085;48.092;11.484;2022-10-15T01:31:25;94658.44;;;12.40;100.00
10093;BME280;5085;48.092;11.484;2022-10-15T01:34:04;94663.53;;;12.42;100.00
10093;BME280;5085;48.092;11.484;2022-10-15T01:36:47;94661.16;;;12.40;100.00
10093;BME280;5085;48.092;11.484;2022-10-15T01:39:26;94659.25;;;12.41;100.00
10093;BME280;5085;48.092;11.484;2022-10-15T01:42:03;94654.63;;;12.41;100.00
10093;BME280;5085;48.092;11.484;2022-10-15T01:44:39;94645.75;;;12.41;100.00
10093;BME280;5085;48.092;11.484;2022-10-15T01:47:35;94642.25;;;12.40;100.00
10093;BME280;5085;48.092;11.484;2022-10-15T01:50:04;94645.22;;;12.39;100.00
10093;BME280;5085;48.092;11.484;2022-10-15T01:52:33;94646.03;;;12.39;100.00
10093;BME280;5085;48.092;11.484;2022-10-15T01:55:04;94637.91;;;12.39;100.00
10093;BME280;5085;48.092;11.484;2022-10-15T01:57:35;94634.13;;;12.40;100.00
10093;BME280;5085;48.092;11.484;2022-10-15T02:00:03;94636.84;;;12.40;100.00
10093;BME280;5085;48.092;11.484;2022-10-15T02:02:38;94636.31;;;12.38;100.00
10093;BME280;5085;48.092;11.484;2022-10-15T02:05:15;94636.00;;;12.40;100.00
10093;BME280;5085;48.092;11.484;2022-10-15T02:07:54;94630.63;;;12.40;100.00
10093;BME280;5085;48.092;11.484;2022-10-15T02:10:37;94626.03;;;12.40;100.00
10093;BME280;5085;48.092;11.484;2022-10-15T02:18:40;94625.22;;;12.40;100.00
10093;BME280;5085;48.092;11.484;2022-10-15T02:21:20;94627.13;;;12.39;100.00
10093;BME280;5085;48.092;11.484;2022-10-15T02:26:36;94625.84;;;12.37;100.00
10093;BME280;5085;48.092;11.484;2022-10-15T02:29:04;94627.44;;;12.38;100.00
10093;BME280;5085;48.092;11.484;2022-10-15T02:31:34;94620.44;;;12.37;100.00
10093;BME280;5085;48.092;11.484;2022-10-15T02:34:05;94623.63;;;12.39;100.00
10093;BME280;5085;48.092;11.484;2022-10-15T02:36:33;94626.63;;;12.37;100.00
10093;BME280;5085;48.092;11.484;2022-10-15T02:39:04;94621.72;;;12.39;100.00
10093;BME280;5085;48.092;11.484;2022-10-15T02:41:34;94623.34;;;12.40;100.00
10093;BME280;5085;48.092;11.484;2022-10-15T02:44:02;94619.81;;;12.40;100.00
10093;BME280;5085;48.092;11.484;2022-10-15T02:46:28;94617.94;;;12.40;100.00
10093;BME280;5085;48.092;11.484;2022-10-15T02:48:54;94610.31;;;12.42;100.00
10093;BME280;5085;48.092;11.484;2022-10-15T02:51:20;94611.13;;;12.43;100.00
10093;BME280;5085;48.092;11.484;2022-10-15T02:53:46;94608.94;;;12.45;100.00
10093;BME280;5085;48.092;11.484;2022-10-15T02:56:12;94607.84;;;12.46;100.00
10093;BME280;5085;48.092;11.484;2022-10-15T02:58:39;94614.03;;;12.46;100.00
10093;BME280;5085;48.092;11.484;2022-10-15T03:01:06;94605.63;;;12.48;100.00
10093;BME280;5085;48.092;11.484;2022-10-15T03:03:32;94607.25;;;12.49;100.00
10093;BME280;5085;48.092;11.484;2022-10-15T03:05:58;94610.75;;;12.49;100.00
10093;BME280;5085;48.092;11.484;2022-10-15T03:08:25;94611.22;;;12.51;100.00
10093;BME280;5085;48.092;11.484;2022-10-15T03:10:51;94611.75;;;12.54;100.00
10093;BME280;5085;48.092;11.484;2022-10-15T03:13:17;94607.94;;;12.55;100.00
10093;BME280;5085;48.092;11.484;2022-10-15T03:15:48;94608.44;;;12.57;100.00
10093;BME280;5085;48.092;11.484;2022-10-15T03:18:15;94611.13;;;12.57;100.00
10093;BME280;5085;48.092;11.484;2022-10-15T03:20:41;94613.03;;;12.56;100.00
10093;BME280;5085;48.092;11.484;2022-10-15T03:23:08;94613.81;;;12.57;100.00
10093;BME280;5085;48.092;11.484;2022-10-15T03:25:34;94605.44;;;12.58;100.00
10093;BME280;5085;48.092;11.484;2022-10-15T03:28:03;94615.63;;;12.61;100.00
10093;BME280;5085;48.092;11.484;2022-10-15T03:30:38;94610.53;;;12.60;100.00
10093;BME280;5085;48.092;11.484;2022-10-15T03:33:05;94611.84;;;12.62;100.00
10093;BME280;5085;48.092;11.484;2022-10-15T03:35:31;94613.75;;;12.62;100.00
10093;BME280;5085;48.092;11.484;2022-10-15T03:37:57;94613.44;;;12.63;100.00
10093;BME280;5085;48.092;11.484;2022-10-15T03:40:23;94609.63;;;12.64;100.00
10093;BME280;5085;48.092;11.484;2022-10-15T03:42:53;94602.63;;;12.63;100.00
10093;BME280;5085;48.092;11.484;2022-10-15T03:45:23;94605.03;;;12.65;100.00
10093;BME280;5085;48.092;11.484;2022-10-15T03:48:01;94606.66;;;12.66;100.00
10093;BME280;5085;48.092;11.484;2022-10-15T03:50:31;94610.94;;;12.67;100.00
10093;BME280;5085;48.092;11.484;2022-10-15T03:53:04;94606.34;;;12.67;100.00
10093;BME280;5085;48.092;11.484;2022-10-15T03:55:31;94600.63;;;12.69;100.00
10093;BME280;5085;48.092;11.484;2022-10-15T03:57:58;94601.41;;;12.69;100.00
10093;BME280;5085;48.092;11.484;2022-10-15T04:00:24;94601.13;;;12.71;100.00
10093;BME280;5085;48.092;11.484;2022-10-15T04:02:54;94603.03;;;12.70;100.00
10093;BME280;5085;48.092;11.484;2022-10-15T04:05:25;94599.22;;;12.71;100.00
10093;BME280;5085;48.092;11.484;2022-10-15T04:07:55;94612.44;;;12.73;100.00
10093;BME280;5085;48.092;11.484;2022-10-15T04:10:23;94608.63;;;12.74;100.00
10093;BME280;5085;48.092;11.484;2022-10-15T04:12:49;94609.44;;;12.74;100.00
10093;BME280;5085;48.092;11.484;2022-10-15T04:15:16;94616.94;;;12.77;100.00
10093;BME280;5085;48.092;11.484;2022-10-15T04:17:54;94601.50;;;12.78;100.00
10093;BME280;5085;48.092;11.484;2022-10-15T04:20:21;94616.81;;;12.83;100.00
10093;BME280;5085;48.092;11.484;2022-10-15T04:22:48;94611.13;;;12.84;100.00
10093;BME280;5085;48.092;11.484;2022-10-15T04:25:14;94607.31;;;12.85;100.00
10093;BME280;5085;48.092;11.484;2022-10-15T04:27:41;94608.63;;;12.88;100.00
10093;BME280;5085;48.092;11.484;2022-10-15T04:30:11;94616.44;;;12.89;100.00
10093;BME280;5085;48.092;11.484;2022-10-15T04:32:42;94615.84;;;12.92;100.00
10093;BME280;5085;48.092;11.484;2022-10-15T04:35:09;94619.03;;;12.94;100.00
10093;BME280;5085;48.092;11.484;2022-10-15T04:37:50;94616.31;;;12.94;100.00
10093;BME280;5085;48.092;11.484;2022-10-15T04:40:16;94615.72;;;12.97;100.00
10093;BME280;5085;48.092;11.484;2022-10-15T04:42:43;94615.91;;;13.01;100.00
10093;BME280;5085;48.092;11.484;2022-10-15T04:45:09;94610.72;;;13.05;100.00
10093;BME280;5085;48.092;11.484;2022-10-15T04:47:35;94612.78;;;13.08;100.00
10093;BME280;5085;48.092;11.484;2022-10-15T04:50:07;94611.41;;;13.10;100.00
10093;BME280;5085;48.092;11.484;2022-10-15T04:52:55;94619.41;;;13.15;100.00
10093;BME280;5085;48.092;11.484;2022-10-15T04:55:23;94623.88;;;13.20;100.00
10093;BME280;5085;48.092;11.484;2022-10-15T04:57:53;94626.03;;;13.23;100.00
10093;BME280;5085;48.092;11.484;2022-10-15T05:00:26;94623.53;;;13.27;100.00
10093;BME280;5085;48.092;11.484;2022-10-15T05:03:11;94618.31;;;13.30;100.00
10093;BME280;5085;48.092;11.484;2022-10-15T05:05:48;94626.59;;;13.34;100.00
10093;BME280;5085;48.092;11.484;2022-10-15T05:08:14;94619.78;;;13.36;100.00
10093;BME280;5085;48.092;11.484;2022-10-15T05:11:05;94635.09;;;13.41;100.00
10093;BME280;5085;48.092;11.484;2022-10-15T05:13:32;94637.50;;;13.42;100.00
10093;BME280;5085;48.092;11.484;2022-10-15T05:18:42;94635.78;;;13.46;100.00
10093;BME280;5085;48.092;11.484;2022-10-15T05:21:09;94636.88;;;13.45;100.00
10093;BME280;5085;48.092;11.484;2022-10-15T05:23:36;94631.97;;;13.47;100.00
10093;BME280;5085;48.092;11.484;2022-10-15T05:26:20;94646.00;;;13.49;100.00
10093;BME280;5085;48.092;11.484;2022-10-15T05:28:48;94641.38;;;13.50;100.00
10093;BME280;5085;48.092;11.484;2022-10-15T05:31:25;94639.19;;;13.52;100.00
10093;BME280;5085;48.092;11.484;2022-10-15T05:34:05;94642.38;;;13.54;100.00
10093;BME280;5085;48.092;11.484;2022-10-15T05:36:34;94650.19;;;13.56;100.00
10093;BME280;5085;48.092;11.484;2022-10-15T05:39:03;94652.91;;;13.56;100.00
10093;BME280;5085;48.092;11.484;2022-10-15T05:41:38;94661.50;;;13.58;100.00
10093;BME280;5085;48.092;11.484;2022-10-15T05:44:04;94658.00;;;13.57;100.00
10093;BME280;5085;48.092;11.484;2022-10-15T05:46:30;94661.19;;;13.59;100.00
10093;BME280;5085;48.092;11.484;2022-10-15T05:48:57;94662.00;;;13.60;100.00
10093;BME280;5085;48.092;11.484;2022-10-15T05:51:24;94665.19;;;13.62;100.00
10093;BME280;5085;48.092;11.484;2022-10-15T05:53:55;94669.50;;;13.63;100.00
10093;BME280;5085;48.092;11.484;2022-10-15T05:56:22;94675.72;;;13.63;100.00
10093;BME280;5085;48.092;11.484;2022-10-15T05:58:49;94670.81;;;13.65;100.00
10093;BME280;5085;48.092;11.484;2022-10-15T06:01:15;94681.31;;;13.67;100.00
10093;BME280;5085;48.092;11.484;2022-10-15T06:03:47;94681.81;;;13.69;100.00
10093;BME280;5085;48.092;11.484;2022-10-15T06:06:19;94681.19;;;13.72;100.00
10093;BME280;5085;48.092;11.484;2022-10-15T06:08:46;94688.72;;;13.75;100.00
10093;BME280;5085;48.092;11.484;2022-10-15T06:11:12;94694.63;;;13.77;100.00
10093;BME280;5085;48.092;11.484;2022-10-15T06:13:39;94698.13;;;13.78;100.00
10093;BME280;5085;48.092;11.484;2022-10-15T06:16:06;94704.34;;;13.78;100.00
10093;BME280;5085;48.092;11.484;2022-10-15T06:18:33;94695.91;;;13.80;100.00
10093;BME280;5085;48.092;11.484;2022-10-15T06:21:00;94708.38;;;13.81;100.00
10093;BME280;5085;48.092;11.484;2022-10-15T06:23:26;94717.28;;;13.81;100.00
10093;BME280;5085;48.092;11.484;2022-10-15T06:25:53;94714.25;;;13.83;100.00
10093;BME280;5085;48.092;11.484;2022-10-15T06:28:19;94711.88;;;13.81;100.00
10093;BME280;5085;48.092;11.484;2022-10-15T06:30:45;94717.28;;;13.81;100.00
10093;BME280;5085;48.092;11.484;2022-10-15T06:33:11;94725.09;;;13.83;100.00
10093;BME280;5085;48.092;11.484;2022-10-15T06:35:37;94726.69;;;13.84;100.00
10093;BME280;5085;48.092;11.484;2022-10-15T06:38:05;94738.00;;;13.86;100.00
10093;BME280;5085;48.092;11.484;2022-10-15T06:40:31;94736.59;;;13.88;100.00
10093;BME280;5085;48.092;11.484;2022-10-15T06:43:07;94738.69;;;13.91;100.00
10093;BME280;5085;48.092;11.484;2022-10-15T06:45:40;94742.38;;;13.95;100.00
10093;BME280;5085;48.092;11.484;2022-10-15T06:48:16;94746.09;;;13.99;100.00
10093;BME280;5085;48.092;11.484;2022-10-15T06:50:43;94753.28;;;14.04;100.00
10093;BME280;5085;48.092;11.484;2022-10-15T06:53:09;94754.59;;;14.07;100.00
10093;BME280;5085;48.092;11.484;2022-10-15T06:55:35;94758.31;;;14.11;100.00
10093;BME280;5085;48.092;11.484;2022-10-15T06:58:01;94754.16;;;14.13;100.00
10093;BME280;5085;48.092;11.484;2022-10-15T07:00:28;94752.75;;;14.16;100.00
10093;BME280;5085;48.092;11.484;2022-10-15T07:02:54;94761.09;;;14.19;100.00
10093;BME280;5085;48.092;11.484;2022-10-15T07:05:20;94765.56;;;14.24;100.00
10093;BME280;5085;48.092;11.484;2022-10-15T07:07:51;94776.28;;;14.29;100.00
10093;BME280;5085;48.092;11.484;2022-10-15T07:10:17;94768.63;;;14.31;100.00
10093;BME280;5085;48.092;11.484;2022-10-15T07:12:43;94777.75;;;14.35;100.00
10093;BME280;5085;48.092;11.484;2022-10-15T07:15:09;94778.59;;;14.36;100.00
10093;BME280;5085;48.092;11.484;2022-10-15T07:17:35;94787.66;;;14.40;100.00
10093;BME280;5085;48.092;11.484;2022-10-15T07:20:03;94787.06;;;14.43;100.00
10093;BME280;5085;48.092;11.484;2022-10-15T07:22:29;94789.47;;;14.44;100.00
10093;BME280;5085;48.092;11.484;2022-10-15T07:24:55;94795.06;;;14.48;100.00
10093;BME280;5085;48.092;11.484;2022-10-15T07:27:21;94800.41;;;14.53;100.00
10093;BME280;5085;48.092;11.484;2022-10-15T07:29:51;94800.28;;;14.58;100.00
10093;BME280;5085;48.092;11.484;2022-10-15T07:32:17;94805.91;;;14.62;100.00
10093;BME280;5085;48.092;11.484;2022-10-15T07:34:43;94810.69;;;14.65;100.00
10093;BME280;5085;48.092;11.484;2022-10-15T07:37:09;94815.31;;;14.64;100.00
10093;BME280;5085;48.092;11.484;2022-10-15T07:39:35;94816.75;;;14.62;100.00
10093;BME280;5085;48.092;11.484;2022-10-15T07:42:01;94818.34;;;14.63;100.00
10093;BME280;5085;48.092;11.484;2022-10-15T07:44:27;94826.16;;;14.64;100.00
10093;BME280;5085;48.092;11.484;2022-10-15T07:46:53;94820.13;;;14.67;100.00
10093;BME280;5085;48.092;11.484;2022-10-15T07:49:19;94827.63;;;14.70;100.00
10093;BME280;5085;48.092;11.484;2022-10-15T07:51:46;94832.13;;;14.75;100.00
10093;BME280;5085;48.092;11.484;2022-10-15T07:54:12;94833.13;;;14.79;100.00
10093;BME280;5085;48.092;11.484;2022-10-15T07:56:38;94818.63;;;14.84;100.00
10093;BME280;5085;48.092;11.484;2022-10-15T07:59:04;94831.88;;;14.85;100.00
10093;BME280;5085;48.092;11.484;2022-10-15T08:01:30;94829.66;;;14.87;100.00
10093;BME280;5085;48.092;11.484;2022-10-15T08:03:56;94828.56;;;14.88;100.00
10093;BME280;5085;48.092;11.484;2022-10-15T08:06:23;94834.47;;;14.90;100.00
10093;BME280;5085;48.092;11.484;2022-10-15T08:08:50;94829.53;;;14.92;100.00
10093;BME280;5085;48.092;11.484;2022-10-15T08:11:16;94832.44;;;14.96;100.00
10093;BME280;5085;48.092;11.484;2022-10-15T08:13:43;94847.78;;;15.00;100.00
10093;BME280;5085;48.092;11.484;2022-10-15T08:16:14;94841.72;;;15.04;100.00
10093;BME280;5085;48.092;11.484;2022-10-15T08:18:41;94848.75;;;15.05;100.00
10093;BME280;5085;48.092;11.484;2022-10-15T08:21:08;94848.25;;;15.03;100.00
10093;BME280;5085;48.092;11.484;2022-10-15T08:23:35;94859.41;;;15.01;100.00
10093;BME280;5085;48.092;11.484;2022-10-15T08:26:01;94855.72;;;14.97;100.00
10093;BME280;5085;48.092;11.484;2022-10-15T08:28:28;94877.75;;;14.95;100.00
10093;BME280;5085;48.092;11.484;2022-10-15T08:30:59;94876.56;;;14.88;100.00
10093;BME280;5085;48.092;11.484;2022-10-15T08:33:27;94880.69;;;14.85;100.00
10093;BME280;5085;48.092;11.484;2022-10-15T08:35:53;94890.25;;;14.83;100.00
10093;BME280;5085;48.092;11.484;2022-10-15T08:38:19;94898.19;;;14.79;100.00
10093;BME280;5085;48.092;11.484;2022-10-15T08:40:56;94897.88;;;14.81;100.00
10093;BME280;5085;48.092;11.484;2022-10-15T08:46:01;94899.84;;;14.89;100.00
10093;BME280;5085;48.092;11.484;2022-10-15T08:48:42;94905.94;;;14.94;100.00
10093;BME280;5085;48.092;11.484;2022-10-15T08:51:13;94918.75;;;15.03;100.00
10093;BME280;5085;48.092;11.484;2022-10-15T08:53:45;94913.22;;;15.08;100.00
10093;BME280;5085;48.092;11.484;2022-10-15T08:56:37;94914.72;;;15.14;100.00
10093;BME280;5085;48.092;11.484;2022-10-15T08:59:35;94917.66;;;15.26;100.00
10093;BME280;5085;48.092;11.484;2022-10-15T09:02:18;94916.59;;;15.36;100.00
10093;BME280;5085;48.092;11.484;2022-10-15T09:04:58;94909.19;;;15.50;100.00
10093;BME280;5085;48.092;11.484;2022-10-15T09:07:35;94902.59;;;15.65;100.00
10093;BME280;5085;48.092;11.484;2022-10-15T09:10:45;94909.69;;;15.83;100.00
10093;BME280;5085;48.092;11.484;2022-10-15T09:13:09;94907.06;;;16.09;100.00
10093;BME280;5085;48.092;11.484;2022-10-15T09:15:46;94911.78;;;16.43;100.00
10093;BME280;5085;48.092;11.484;2022-10-15T09:18:19;94913.94;;;16.72;100.00
10093;BME280;5085;48.092;11.484;2022-10-15T09:20:47;94910.28;;;17.03;100.00
10093;BME280;5085;48.092;11.484;2022-10-15T09:23:18;94906.09;;;17.23;100.00
10093;BME280;5085;48.092;11.484;2022-10-15T09:26:15;94904.00;;;17.37;100.00
10093;BME280;5085;48.092;11.484;2022-10-15T09:28:42;94904.47;;;17.39;100.00
10093;BME280;5085;48.092;11.484;2022-10-15T09:31:12;94900.16;;;17.38;100.00
10093;BME280;5085;48.092;11.484;2022-10-15T09:33:49;94902.41;;;17.36;100.00
10093;BME280;5085;48.092;11.484;2022-10-15T09:39:42;94904.63;;;17.43;100.00
10093;BME280;5085;48.092;11.484;2022-10-15T09:42:30;94905.44;;;17.43;100.00
10093;BME280;5085;48.092;11.484;2022-10-15T09:45:03;94912.00;;;17.51;100.00
10093;BME280;5085;48.092;11.484;2022-10-15T09:47:32;94910.69;;;17.57;100.00
10093;BME280;5085;48.092;11.484;2022-10-15T09:50:03;94906.31;;;17.73;100.00
10093;BME280;5085;48.092;11.484;2022-10-15T09:57:46;94920.94;;;18.45;100.00
10093;BME280;5085;48.092;11.484;2022-10-15T10:00:15;94927.44;;;18.62;100.00
10093;BME280;5085;48.092;11.484;2022-10-15T10:02:42;94922.03;;;18.83;100.00
10093;BME280;5085;48.092;11.484;2022-10-15T10:05:30;94928.28;;;19.04;100.00
10093;BME280;5085;48.092;11.484;2022-10-15T10:08:08;94922.47;;;19.27;100.00
10093;BME280;5085;48.092;11.484;2022-10-15T10:10:36;94934.81;;;19.45;100.00
10093;BME280;5085;48.092;11.484;2022-10-15T10:13:06;94928.81;;;19.52;100.00
10093;BME280;5085;48.092;11.484;2022-10-15T10:15:42;94934.56;;;19.59;100.00
10093;BME280;5085;48.092;11.484;2022-10-15T10:18:23;94941.13;;;19.91;100.00
10093;BME280;5085;48.092;11.484;2022-10-15T10:21:00;94939.03;;;20.33;100.00
10093;BME280;5085;48.092;11.484;2022-10-15T10:26:07;94941.56;;;20.75;100.00
10093;BME280;5085;48.092;11.484;2022-10-15T10:28:56;94948.38;;;21.74;99.95
10093;BME280;5085;48.092;11.484;2022-10-15T10:31:30;94941.47;;;22.40;93.73
10093;BME280;5085;48.092;11.484;2022-10-15T10:34:01;94952.53;;;23.45;88.47
10093;BME280;5085;48.092;11.484;2022-10-15T10:36:31;94947.94;;;24.34;77.65
10093;BME280;5085;48.092;11.484;2022-10-15T10:39:03;94948.97;;;25.85;73.25
10093;BME280;5085;48.092;11.484;2022-10-15T10:41:56;94944.03;;;27.46;60.94
10093;BME280;5085;48.092;11.484;2022-10-15T10:44:28;94936.69;;;27.89;54.48
10093;BME280;5085;48.092;11.484;2022-10-15T10:47:12;94935.03;;;27.70;55.29
10093;BME280;5085;48.092;11.484;2022-10-15T10:49:48;94941.69;;;26.92;56.95
10093;BME280;5085;48.092;11.484;2022-10-15T10:52:36;94934.50;;;26.81;57.20
10093;BME280;5085;48.092;11.484;2022-10-15T10:55:15;94929.31;;;26.72;59.61
10093;BME280;5085;48.092;11.484;2022-10-15T10:57:43;94933.00;;;26.90;56.97
10093;BME280;5085;48.092;11.484;2022-10-15T11:00:14;94929.19;;;26.58;56.28
10093;BME280;5085;48.092;11.484;2022-10-15T11:02:46;94936.13;;;26.00;55.70
10093;BME280;5085;48.092;11.484;2022-10-15T11:05:13;94938.25;;;25.47;59.31
10093;BME280;5085;48.092;11.484;2022-10-15T11:07:55;94940.72;;;24.99;63.09
10093;BME280;5085;48.092;11.484;2022-10-15T11:10:26;94937.81;;;24.38;64.74
10093;BME280;5085;48.092;11.484;2022-10-15T11:13:43;94940.09;;;24.13;70.16
10093;BME280;5085;48.092;11.484;2022-10-15T11:16:23;94937.69;;;23.89;72.55
10093;BME280;5085;48.092;11.484;2022-10-15T11:18:59;94950.25;;;23.67;71.98
10093;BME280;5085;48.092;11.484;2022-10-15T11:21:53;94945.41;;;23.44;72.58
10093;BME280;5085;48.092;11.484;2022-10-15T11:24:28;94948.03;;;23.37;75.77
10093;BME280;5085;48.092;11.484;2022-10-15T11:27:21;94936.47;;;23.28;75.97
10093;BME280;5085;48.092;11.484;2022-10-15T11:30:00;94934.06;;;23.07;75.60
10093;BME280;5085;48.092;11.484;2022-10-15T11:32:33;94930.78;;;23.02;76.04
10093;BME280;5085;48.092;11.484;2022-10-15T11:44:13;94934.09;;;26.79;56.55
10093;BME280;5085;48.092;11.484;2022-10-15T11:55:18;94928.13;;;31.63;41.33
10093;BME280;5085;48.092;11.484;2022-10-15T11:57:48;94929.47;;;32.16;40.30
10093;BME280;5085;48.092;11.484;2022-10-15T12:00:18;94926.97;;;33.03;38.29
10093;BME280;5085;48.092;11.484;2022-10-15T12:02:52;94935.84;;;33.65;36.24
10093;BME280;5085;48.092;11.484;2022-10-15T12:05:49;94935.84;;;33.41;36.45
10093;BME280;5085;48.092;11.484;2022-10-15T12:08:13;94938.28;;;31.77;38.19
10093;BME280;5085;48.092;11.484;2022-10-15T12:11:37;94945.63;;;30.07;41.18
10093;BME280;5085;48.092;11.484;2022-10-15T12:14:12;94938.38;;;28.29;43.96
10093;BME280;5085;48.092;11.484;2022-10-15T12:17:07;94927.47;;;26.90;47.22
10093;BME280;5085;48.092;11.484;2022-10-15T12:22:10;94929.66;;;26.63;50.66
10093;BME280;5085;48.092;11.484;2022-10-15T12:29:47;94917.38;;;29.35;43.69
10093;BME280;5085;48.092;11.484;2022-10-15T12:32:24;94920.19;;;29.18;42.28
10093;BME280;5085;48.092;11.484;2022-10-15T12:34:59;94934.88;;;28.79;44.53
10093;BME280;5085;48.092;11.484;2022-10-15T12:37:28;94921.72;;;28.01;46.95
10093;BME280;5085;48.092;11.484;2022-10-15T12:40:01;94929.03;;;26.91;48.47
10093;BME280;5085;48.092;11.484;2022-10-15T12:42:36;94920.16;;;26.20;50.19
10093;BME280;5085;48.092;11.484;2022-10-15T12:45:07;94917.47;;;25.90;53.13
10093;BME280;5085;48.092;11.484;2022-10-15T12:47:54;94907.84;;;26.55;52.03
10093;BME280;5085;48.092;11.484;2022-10-15T12:50:23;94911.78;;;27.85;48.94
10093;BME280;5085;48.092;11.484;2022-10-15T12:55:35;94904.25;;;30.31;42.92
10093;BME280;5085;48.092;11.484;2022-10-15T13:00:48;94905.31;;;31.72;40.18
10093;BME280;5085;48.092;11.484;2022-10-15T13:03:22;94901.63;;;32.13;38.97
10093;BME280;5085;48.092;11.484;2022-10-15T13:05:50;94907.22;;;32.40;38.27
10093;BME280;5085;48.092;11.484;2022-10-15T13:08:22;94911.31;;;32.31;38.32
10093;BME280;5085;48.092;11.484;2022-10-15T13:10:53;94907.47;;;31.95;38.82
10093;BME280;5085;48.092;11.484;2022-10-15T13:13:26;94903.44;;;30.86;39.62
10093;BME280;5085;48.092;11.484;2022-10-15T13:15:59;94904.00;;;29.02;41.71
10093;BME280;5085;48.092;11.484;2022-10-15T13:18:27;94899.91;;;27.74;45.06
10093;BME280;5085;48.092;11.484;2022-10-15T13:20:55;94898.34;;;27.07;47.63
10093;BME280;5085;48.092;11.484;2022-10-15T13:26:09;94894.59;;;27.44;46.86
10093;BME280;5085;48.092;11.484;2022-10-15T13:28:38;94896.72;;;27.76;45.49
10093;BME280;5085;48.092;11.484;2022-10-15T13:31:17;94898.75;;;27.97;46.32
10093;BME280;5085;48.092;11.484;2022-10-15T13:33:48;94901.38;;;27.61;47.14
10093;BME280;5085;48.092;11.484;2022-10-15T13:36:19;94897.03;;;26.87;47.72
10093;BME280;5085;48.092;11.484;2022-10-15T13:38:52;94898.59;;;26.81;48.55
10093;BME280;5085;48.092;11.484;2022-10-15T13:41:28;94901.31;;;27.43;46.41
10093;BME280;5085;48.092;11.484;2022-10-15T13:43:58;94906.44;;;27.37;46.73
10093;BME280;5085;48.092;11.484;2022-10-15T13:46:28;94897.63;;;27.10;47.11
10093;BME280;5085;48.092;11.484;2022-10-15T13:49:08;94904.59;;;26.97;47.03
10093;BME280;5085;48.092;11.484;2022-10-15T13:51:38;94891.03;;;27.44;46.31
10093;BME280;5085;48.092;11.484;2022-10-15T13:54:27;94892.69;;;27.62;45.56
10093;BME280;5085;48.092;11.484;2022-10-15T13:56:56;94880.06;;;27.72;45.04
10093;BME280;5085;48.092;11.484;2022-10-15T13:59:25;94879.88;;;27.22;45.58
10093;BME280;5085;48.092;11.484;2022-10-15T14:01:56;94878.47;;;26.36;48.44
10093;BME280;5085;48.092;11.484;2022-10-15T14:04:28;94881.50;;;25.46;50.87
10093;BME280;5085;48.092;11.484;2022-10-15T14:06:59;94882.28;;;24.59;52.97
10093;BME280;5085;48.092;11.484;2022-10-15T14:09:34;94883.84;;;23.88;54.99
10093;BME280;5085;48.092;11.484;2022-10-15T14:12:01;94875.00;;;23.36;58.22
10093;BME280;5085;48.092;11.484;2022-10-15T14:14:33;94877.00;;;22.85;62.77
10093;BME280;5085;48.092;11.484;2022-10-15T14:17:05;94873.59;;;22.37;64.52
10093;BME280;5085;48.092;11.484;2022-10-15T14:19:34;94868.28;;;21.96;66.82
10093;BME280;5085;48.092;11.484;2022-10-15T14:22:01;94869.03;;;21.65;70.05